Atica — EA4943 — position and weather

sailwx.info

Track history (hours):
 
Tides and Currents Weather Stations Pressure Air Temp Water Temp Dewpoint Dewpoint Depression Visibility Wind Speed Wind Dir Waves Ship Positions

Atica

Last reported at 2016-Aug-22 11:25 UTC. Time now 2016-Aug-26 23:25 UTC.
Position N 39°03' E 002°07'.

Type: Sailing vessel. MMSI: 224499180.

Date/timePositionNaut miles runAvg speedWind from/ knotsBaromVisibWave heightAir tempDewpointWater temp
2016-Aug-22 11:25N 39°03' E 002°07'6 6.9
2016-Aug-22 10:33N 39°05' E 002°14'7 6.8
2016-Aug-22 09:33N 39°08' E 002°22'7 6.9
2016-Aug-22 08:30N 39°11' E 002°31'7 7.1
2016-Aug-22 07:33N 39°13' E 002°39'7 7.2
2016-Aug-22 06:33N 39°16' E 002°47'8 7.5
2016-Aug-22 05:33N 39°19' E 002°56'2 0.8
2016-Aug-22 02:23N 39°20' E 002°59'0 0.0
2016-Aug-21 22:29N 39°20' E 002°59'0 0.0
2016-Aug-21 21:05N 39°20' E 002°59'0 0.0
2016-Aug-21 18:17N 39°20' E 002°59'0 0.0
2016-Aug-21 15:29N 39°20' E 002°59'0 0.0
2016-Aug-21 14:20N 39°20' E 002°59'56 2.2
2016-Aug-20 13:04N 40°02' E 003°49'  
Track history (hours):
 
Tides and Currents Weather Stations Pressure Air Temp Water Temp Dewpoint Dewpoint Depression Visibility Wind Speed Wind Dir Waves Ship Positions

Atica

Last reported at 2016-Aug-22 11:25 UTC. Time now 2016-Aug-26 23:25 UTC.
Position N 39°03' E 002°07'.

Type: Sailing vessel. MMSI: 224499180.

Date/timePositionNaut miles runAvg speedWind from/ knotsBaromVisibWave heightAir tempDewpointWater temp
2016-Aug-22 11:25N 39°03' E 002°07'6 6.9
2016-Aug-22 10:33N 39°05' E 002°14'7 6.8
2016-Aug-22 09:33N 39°08' E 002°22'7 6.9
2016-Aug-22 08:30N 39°11' E 002°31'7 7.1
2016-Aug-22 07:33N 39°13' E 002°39'7 7.2
2016-Aug-22 06:33N 39°16' E 002°47'8 7.5
2016-Aug-22 05:33N 39°19' E 002°56'2 0.8
2016-Aug-22 02:23N 39°20' E 002°59'0 0.0
2016-Aug-21 22:29N 39°20' E 002°59'0 0.0
2016-Aug-21 21:05N 39°20' E 002°59'0 0.0
2016-Aug-21 18:17N 39°20' E 002°59'0 0.0
2016-Aug-21 15:29N 39°20' E 002°59'0 0.0
2016-Aug-21 14:20N 39°20' E 002°59'56 2.2
2016-Aug-20 13:04N 40°02' E 003°49'  

Dump ship's entire track history